Time;durP1;ratioP1;P1;durP2;ratioP2;P2;SDS_P1;SDS_P2;PMS_P1;PMS_P2;Temp;Humidity;BMP_temperature;BMP_pressure;BME280_temperature;BME280_humidity;BME280_pressure;Samples;Min_cycle;Max_cycle;Signal;HPM_P1;HPM_P2
2022/12/07 00:00:15;;;;;;;17.83;11.43;;;2.30;99.90;;;;;;4912403;29;20492;-74
2022/12/07 00:02:44;;;;;;;16.57;10.93;;;2.30;99.90;;;;;;4912637;29;20449;-74
2022/12/07 00:05:10;;;;;;;20.53;11.20;;;2.20;99.90;;;;;;4911763;29;20463;-74
2022/12/07 00:07:37;;;;;;;15.80;10.27;;;2.20;99.90;;;;;;4912029;29;20551;-73
2022/12/07 00:10:07;;;;;;;14.00;10.70;;;2.20;99.90;;;;;;4911571;29;20508;-74
2022/12/07 00:12:34;;;;;;;17.50;11.60;;;2.20;99.90;;;;;;4910961;29;20563;-74
2022/12/07 00:15:01;;;;;;;13.70;10.03;;;2.10;99.90;;;;;;4911787;29;20470;-73
2022/12/07 00:17:28;;;;;;;18.40;11.30;;;2.10;99.90;;;;;;4923219;29;20846;-74
2022/12/07 00:19:56;;;;;;;16.40;10.63;;;2.10;99.90;;;;;;4930661;29;20570;-73
2022/12/07 00:22:23;;;;;;;18.63;11.33;;;2.10;99.90;;;;;;4930614;29;20828;-74
2022/12/07 00:24:49;;;;;;;15.10;10.20;;;2.20;99.90;;;;;;4931126;29;20465;-74
2022/12/07 00:27:16;;;;;;;20.30;12.53;;;2.20;99.90;;;;;;4933767;29;20462;-73
2022/12/07 00:29:43;;;;;;;16.30;10.77;;;2.20;99.90;;;;;;4928904;29;20468;-74
2022/12/07 00:32:10;;;;;;;17.90;10.70;;;2.10;99.90;;;;;;4914841;29;20941;-74
2022/12/07 00:34:37;;;;;;;14.50;9.87;;;2.10;99.90;;;;;;4914816;29;20487;-74
2022/12/07 00:37:05;;;;;;;16.27;10.17;;;2.20;99.90;;;;;;4914843;29;20536;-74
2022/12/07 00:39:32;;;;;;;16.03;11.17;;;2.10;99.90;;;;;;4914467;29;20510;-74
2022/12/07 00:41:59;;;;;;;16.40;10.30;;;2.00;99.90;;;;;;4914522;29;20639;-73
2022/12/07 00:44:25;;;;;;;17.10;10.53;;;2.10;99.90;;;;;;4914805;29;20580;-74
2022/12/07 00:46:52;;;;;;;16.37;10.60;;;2.10;99.90;;;;;;4913526;29;20460;-74
2022/12/07 00:49:19;;;;;;;16.50;10.37;;;2.10;99.90;;;;;;4914356;29;20540;-74
2022/12/07 00:51:48;;;;;;;14.63;10.10;;;2.10;99.90;;;;;;4914815;29;20481;-74
2022/12/07 00:54:16;;;;;;;14.87;11.80;;;2.10;99.90;;;;;;4914312;29;20467;-74
2022/12/07 00:56:43;;;;;;;15.03;10.60;;;2.10;99.90;;;;;;4914712;29;20471;-76
2022/12/07 00:59:14;;;;;;;15.53;10.63;;;2.00;99.90;;;;;;4919516;29;21004;-74
2022/12/07 01:01:41;;;;;;;16.10;10.20;;;2.00;99.90;;;;;;4918940;29;20519;-74
2022/12/07 01:04:08;;;;;;;13.73;8.03;;;2.00;99.90;;;;;;4914372;29;20449;-74
2022/12/07 01:06:35;;;;;;;14.07;8.97;;;2.00;99.90;;;;;;4913710;29;20859;-75
2022/12/07 01:09:03;;;;;;;16.10;9.30;;;2.00;99.90;;;;;;4914409;29;20448;-75
2022/12/07 01:11:32;;;;;;;15.27;9.47;;;2.00;99.90;;;;;;4914011;29;20468;-74
2022/12/07 01:14:00;;;;;;;20.60;10.40;;;2.10;99.90;;;;;;4915726;29;20460;-76
2022/12/07 01:16:29;;;;;;;13.30;8.10;;;2.10;99.90;;;;;;4915389;29;20451;-75
2022/12/07 01:18:57;;;;;;;14.57;8.83;;;2.10;99.90;;;;;;4914514;29;20838;-75
2022/12/07 01:21:26;;;;;;;14.67;8.60;;;2.20;99.90;;;;;;4912929;29;20980;-75
2022/12/07 01:23:53;;;;;;;14.70;9.03;;;2.30;99.90;;;;;;4914067;29;20657;-75
2022/12/07 01:26:22;;;;;;;12.70;7.43;;;2.40;99.90;;;;;;4914159;29;20456;-74
2022/12/07 01:28:51;;;;;;;11.20;8.00;;;2.40;99.90;;;;;;4914515;29;20462;-75
2022/12/07 01:31:19;;;;;;;11.50;7.70;;;2.60;99.90;;;;;;4916093;29;20964;-75
2022/12/07 01:33:49;;;;;;;12.63;9.30;;;2.50;99.90;;;;;;4913904;29;20883;-75
2022/12/07 01:36:18;;;;;;;11.53;7.60;;;2.30;99.90;;;;;;4913903;29;20456;-74
2022/12/07 01:38:46;;;;;;;12.63;8.50;;;2.30;99.90;;;;;;4912731;29;20476;-75
2022/12/07 01:41:14;;;;;;;11.57;7.80;;;2.40;99.90;;;;;;4913578;29;20458;-75
2022/12/07 01:44:21;;;;;;;13.30;7.70;;;2.30;99.90;;;;;;4913118;29;20703;-73
2022/12/07 01:46:50;;;;;;;12.73;8.00;;;2.40;99.90;;;;;;4912377;29;20535;-73
2022/12/07 01:49:39;;;;;;;10.73;7.80;;;2.40;99.90;;;;;;4913522;29;20941;-74
2022/12/07 01:52:16;;;;;;;13.07;7.90;;;2.30;99.90;;;;;;4909769;29;20459;-73
2022/12/07 01:54:44;;;;;;;14.27;10.00;;;2.20;99.90;;;;;;4912522;29;20521;-73
2022/12/07 01:57:12;;;;;;;12.00;8.77;;;2.00;99.90;;;;;;4913574;29;20451;-74
2022/12/07 01:59:40;;;;;;;15.10;9.77;;;2.00;99.90;;;;;;4913150;29;20496;-73
2022/12/07 02:02:12;;;;;;;13.43;8.80;;;2.00;99.90;;;;;;4928336;29;21007;-73
2022/12/07 02:04:40;;;;;;;12.50;8.90;;;2.00;99.90;;;;;;4932342;29;20468;-72
2022/12/07 02:07:07;;;;;;;11.97;8.70;;;2.00;99.90;;;;;;4932134;29;20562;-72
2022/12/07 02:09:34;;;;;;;13.07;8.57;;;2.00;99.90;;;;;;4931058;29;20470;-73
2022/12/07 02:12:01;;;;;;;14.67;9.30;;;2.00;99.90;;;;;;4913029;29;20562;-73
2022/12/07 02:14:28;;;;;;;21.00;10.40;;;2.00;99.90;;;;;;4912742;29;20479;-73
2022/12/07 02:17:08;;;;;;;18.13;10.77;;;2.00;99.90;;;;;;4914588;29;20464;-73
2022/12/07 02:20:19;;;;;;;12.47;8.13;;;2.00;99.90;;;;;;4913701;29;20496;-74
2022/12/07 02:23:19;;;;;;;13.93;9.60;;;2.00;99.90;;;;;;4912946;29;20870;-73
2022/12/07 02:26:19;;;;;;;14.93;8.73;;;2.00;99.90;;;;;;4914179;29;20476;-73
2022/12/07 02:29:06;;;;;;;13.67;8.53;;;2.00;99.90;;;;;;4894576;29;21090;-73
2022/12/07 02:31:33;;;;;;;14.47;8.87;;;2.10;99.90;;;;;;4894303;29;20472;-73
2022/12/07 02:34:09;;;;;;;14.57;8.50;;;2.20;99.90;;;;;;4893571;29;20461;-73
2022/12/07 02:36:40;;;;;;;12.23;8.60;;;2.20;99.90;;;;;;4895342;29;20460;-73
2022/12/07 02:39:11;;;;;;;12.03;8.60;;;2.10;99.90;;;;;;4913187;29;20911;-76
2022/12/07 02:41:44;;;;;;;15.87;10.10;;;1.90;99.90;;;;;;4914480;29;20456;-77
2022/12/07 02:44:17;;;;;;;18.63;9.00;;;1.90;99.90;;;;;;4914618;29;20488;-77
2022/12/07 02:46:49;;;;;;;15.30;9.20;;;2.00;99.90;;;;;;4913697;29;20455;-78
2022/12/07 02:49:16;;;;;;;12.50;9.00;;;2.00;99.90;;;;;;4913569;29;20452;-77
2022/12/07 02:51:46;;;;;;;15.53;9.30;;;2.00;99.90;;;;;;4914588;29;20479;-76
2022/12/07 02:54:15;;;;;;;14.03;9.20;;;1.90;99.90;;;;;;4915376;29;20466;-77
2022/12/07 02:56:48;;;;;;;13.20;8.60;;;1.90;99.90;;;;;;4914275;29;20466;-76
2022/12/07 02:59:26;;;;;;;14.80;8.63;;;1.90;99.90;;;;;;4914227;29;20466;-77
2022/12/07 03:01:59;;;;;;;15.43;10.80;;;1.90;99.90;;;;;;4915096;29;20461;-76
2022/12/07 03:04:38;;;;;;;14.60;9.00;;;1.90;99.90;;;;;;4915029;29;20460;-77
2022/12/07 03:07:14;;;;;;;15.20;9.90;;;1.90;99.90;;;;;;4919806;29;20543;-77
2022/12/07 03:09:49;;;;;;;17.47;10.50;;;1.90;99.90;;;;;;4915922;29;20511;-76
2022/12/07 03:12:22;;;;;;;17.67;9.73;;;1.90;99.90;;;;;;4912965;29;20661;-76
2022/12/07 03:14:57;;;;;;;19.50;10.50;;;1.20;99.90;;;;;;4913260;29;20488;-74
2022/12/07 03:17:29;;;;;;;13.87;9.50;;;1.90;99.90;;;;;;4911082;29;20452;-76
2022/12/07 03:20:00;;;;;;;14.70;9.23;;;1.90;99.90;;;;;;4910714;29;20966;-76
2022/12/07 03:22:31;;;;;;;15.90;8.83;;;2.00;99.90;;;;;;4911804;29;20975;-76
2022/12/07 03:25:02;;;;;;;14.00;8.50;;;2.00;99.90;;;;;;4913369;29;20457;-76
2022/12/07 03:27:33;;;;;;;15.60;9.90;;;2.10;99.90;;;;;;4912120;29;20479;-76
2022/12/07 03:30:05;;;;;;;14.30;10.20;;;2.10;99.90;;;;;;4913564;29;20913;-78
2022/12/07 03:32:36;;;;;;;15.20;9.40;;;2.40;99.90;;;;;;4913612;29;20462;-78
2022/12/07 03:35:06;;;;;;;19.17;11.00;;;2.30;99.90;;;;;;4912700;29;20822;-76
2022/12/07 03:37:37;;;;;;;13.80;9.17;;;2.30;99.90;;;;;;4929031;29;20531;-76
2022/12/07 03:40:12;;;;;;;10.40;7.83;;;2.40;99.90;;;;;;4918510;29;20488;-76
2022/12/07 03:42:39;;;;;;;13.37;8.47;;;2.40;99.90;;;;;;4912105;29;20455;-76
2022/12/07 03:45:09;;;;;;;13.00;8.53;;;2.40;99.90;;;;;;4910741;29;20558;-79
2022/12/07 03:47:43;;;;;;;12.73;7.70;;;2.40;99.90;;;;;;4908849;29;20667;-77
2022/12/07 03:50:16;;;;;;;13.70;9.00;;;2.50;99.90;;;;;;4894657;29;20456;-76
2022/12/07 03:52:46;;;;;;;17.50;9.47;;;2.50;99.90;;;;;;4892837;29;20553;-76
2022/12/07 03:55:19;;;;;;;15.93;9.90;;;2.40;99.90;;;;;;4893591;29;20536;-77
2022/12/07 03:57:49;;;;;;;12.53;9.00;;;2.50;99.90;;;;;;4892643;29;20494;-77
2022/12/07 04:00:18;;;;;;;12.53;8.77;;;2.40;99.90;;;;;;4893692;29;20501;-77
2022/12/07 04:02:45;;;;;;;12.03;8.50;;;2.40;99.90;;;;;;4909512;29;20469;-77
2022/12/07 04:05:12;;;;;;;12.90;9.10;;;2.50;99.90;;;;;;4915081;29;20471;-78
2022/12/07 04:07:39;;;;;;;12.80;8.60;;;2.50;99.90;;;;;;4915492;29;20460;-78
2022/12/07 04:10:07;;;;;;;13.47;8.87;;;2.50;99.90;;;;;;4915450;29;20809;-77
2022/12/07 04:12:34;;;;;;;18.50;9.83;;;2.50;99.90;;;;;;4916184;29;20992;-77
2022/12/07 04:15:01;;;;;;;13.97;8.67;;;2.40;99.90;;;;;;4917983;29;20479;-77
2022/12/07 04:17:29;;;;;;;13.03;9.10;;;2.40;99.90;;;;;;4918530;29;20463;-76
2022/12/07 04:19:56;;;;;;;13.70;10.23;;;2.20;99.90;;;;;;4919335;29;20489;-76
2022/12/07 04:22:22;;;;;;;15.73;9.77;;;2.00;99.90;;;;;;4915838;29;20479;-76
2022/12/07 04:24:49;;;;;;;15.77;9.93;;;2.00;99.90;;;;;;4920453;29;20451;-77
2022/12/07 04:27:16;;;;;;;20.73;11.80;;;2.00;99.90;;;;;;4918462;29;20454;-76
2022/12/07 04:29:43;;;;;;;15.27;10.07;;;1.90;99.90;;;;;;4921610;29;20945;-77
2022/12/07 04:32:10;;;;;;;17.73;11.33;;;1.90;99.90;;;;;;4921573;29;20840;-75
2022/12/07 04:34:39;;;;;;;18.90;12.30;;;1.90;99.90;;;;;;4918687;29;20453;-76
2022/12/07 04:37:06;;;;;;;14.97;10.10;;;1.80;99.90;;;;;;4926594;29;20470;-76
2022/12/07 04:39:33;;;;;;;21.47;12.00;;;1.90;99.90;;;;;;4921469;29;20957;-75
2022/12/07 04:42:02;;;;;;;18.80;11.67;;;1.90;99.90;;;;;;4923516;29;20453;-76
2022/12/07 04:44:30;;;;;;;17.70;10.90;;;1.90;99.90;;;;;;4922255;29;20463;-76
2022/12/07 04:46:57;;;;;;;17.40;12.37;;;1.80;99.90;;;;;;4923589;29;20862;-76
2022/12/07 04:49:25;;;;;;;20.20;12.27;;;1.80;99.90;;;;;;4921714;29;20480;-76
2022/12/07 04:51:53;;;;;;;22.40;11.77;;;1.90;99.90;;;;;;4920206;29;20471;-77
2022/12/07 04:54:21;;;;;;;25.93;12.73;;;1.90;99.90;;;;;;4921214;29;20540;-79
2022/12/07 04:56:47;;;;;;;20.57;13.10;;;1.80;99.90;;;;;;4923707;29;20453;-76
2022/12/07 04:59:16;;;;;;;25.17;12.83;;;1.80;99.90;;;;;;4918403;29;20466;-77
2022/12/07 05:01:43;;;;;;;22.07;11.47;;;1.80;99.90;;;;;;4913847;29;20511;-76
2022/12/07 05:04:10;;;;;;;22.20;13.27;;;1.70;99.90;;;;;;4916004;29;20451;-76
2022/12/07 05:06:37;;;;;;;21.63;12.17;;;1.70;99.90;;;;;;4916659;29;20511;-77
2022/12/07 05:09:05;;;;;;;19.87;11.10;;;1.70;99.90;;;;;;4914574;29;20852;-77
2022/12/07 05:11:41;;;;;;;22.83;13.60;;;1.70;99.90;;;;;;4911467;29;20469;-77
2022/12/07 05:14:11;;;;;;;20.23;12.57;;;1.60;99.90;;;;;;4914931;29;20819;-77
2022/12/07 05:16:39;;;;;;;16.93;11.70;;;1.70;99.90;;;;;;4916912;29;21023;-76
2022/12/07 05:19:07;;;;;;;21.93;11.97;;;1.60;99.90;;;;;;4916456;29;20467;-76
2022/12/07 05:21:35;;;;;;;23.13;13.47;;;1.50;99.90;;;;;;4910790;29;21027;-76
2022/12/07 05:24:02;;;;;;;17.63;11.80;;;1.50;99.90;;;;;;4896351;29;20483;-76
2022/12/07 05:26:31;;;;;;;21.27;11.77;;;1.50;99.90;;;;;;4911394;29;20675;-76
2022/12/07 05:29:03;;;;;;;21.70;13.30;;;1.60;99.90;;;;;;4913868;29;20496;-77
2022/12/07 05:31:30;;;;;;;20.57;12.43;;;1.60;99.90;;;;;;4913780;29;21044;-73
2022/12/07 05:33:57;;;;;;;22.37;13.33;;;1.50;99.90;;;;;;4913845;29;20452;-77
2022/12/07 05:36:24;;;;;;;21.40;14.17;;;1.60;99.90;;;;;;4924596;29;20513;-73
2022/12/07 05:38:51;;;;;;;23.13;13.43;;;1.50;99.90;;;;;;4935735;29;20459;-76
2022/12/07 05:44:05;;;;;;;22.90;14.23;;;1.50;99.90;;;;;;4915639;29;20483;-78
2022/12/07 05:46:32;;;;;;;25.10;13.60;;;1.50;99.90;;;;;;4916138;29;20464;-77
2022/12/07 05:48:59;;;;;;;24.63;15.13;;;1.50;99.90;;;;;;4915570;29;20542;-77
2022/12/07 05:51:26;;;;;;;19.50;13.70;;;1.50;99.90;;;;;;4917957;29;20832;-77
2022/12/07 05:53:53;;;;;;;25.70;13.20;;;1.60;99.90;;;;;;4917253;29;20464;-78
2022/12/07 05:56:20;;;;;;;23.90;14.13;;;1.60;99.90;;;;;;4919191;29;20460;-78
2022/12/07 06:01:32;;;;;;;24.27;14.10;;;1.50;99.90;;;;;;4919013;29;20551;-78
2022/12/07 06:03:59;;;;;;;21.60;13.43;;;1.40;99.90;;;;;;4908668;29;20476;-78
2022/12/07 06:06:26;;;;;;;20.37;12.30;;;1.50;99.90;;;;;;4911714;29;20811;-78
2022/12/07 06:08:52;;;;;;;19.90;12.90;;;1.50;99.90;;;;;;4899539;29;20474;-78
2022/12/07 06:14:03;;;;;;;22.03;14.00;;;1.50;99.90;;;;;;4913388;29;20551;-75
2022/12/07 06:16:32;;;;;;;24.60;12.90;;;1.50;99.90;;;;;;4914065;29;20460;-74
2022/12/07 06:18:58;;;;;;;22.50;11.77;;;1.60;99.90;;;;;;4912931;29;20456;-75
2022/12/07 06:21:26;;;;;;;21.73;13.00;;;1.50;99.90;;;;;;4910540;29;20531;-74
2022/12/07 06:23:53;;;;;;;21.27;13.70;;;1.80;99.90;;;;;;4911328;29;20560;-75
2022/12/07 06:26:20;;;;;;;23.40;13.57;;;1.60;99.90;;;;;;4913092;29;20455;-75
2022/12/07 06:28:48;;;;;;;25.60;12.83;;;1.60;99.90;;;;;;4912955;29;20469;-75
2022/12/07 06:31:15;;;;;;;23.03;13.30;;;1.60;99.90;;;;;;4910526;29;20473;-75
2022/12/07 06:33:44;;;;;;;27.80;15.73;;;1.50;99.90;;;;;;4919852;29;20470;-74
2022/12/07 06:36:12;;;;;;;24.83;12.63;;;1.60;99.90;;;;;;4931351;29;20912;-75
2022/12/07 06:38:39;;;;;;;30.10;14.23;;;1.60;99.90;;;;;;4930956;29;20452;-75
2022/12/07 06:52:26;;;;;;;18.87;12.50;;;1.50;99.90;;;;;;6052048;23;21615;-78
2022/12/07 06:54:53;;;;;;;20.90;12.60;;;1.50;99.90;;;;;;5093672;23;20458;-77
2022/12/07 07:05:00;;;;;;;23.77;13.47;;;1.50;99.90;;;;;;4964057;28;20515;-80
2022/12/07 07:07:28;;;;;;;18.00;12.87;;;1.50;99.90;;;;;;4977080;29;20521;-80
2022/12/07 07:09:55;;;;;;;18.90;11.70;;;1.50;99.90;;;;;;4977338;28;20454;-79
2022/12/07 07:12:22;;;;;;;20.40;11.83;;;1.50;99.90;;;;;;4963636;29;20477;-76
2022/12/07 07:14:49;;;;;;;17.30;12.43;;;1.60;99.90;;;;;;4938851;28;20490;-76
2022/12/07 07:17:16;;;;;;;18.23;12.53;;;1.60;99.90;;;;;;4961024;28;21066;-77
2022/12/07 07:19:43;;;;;;;21.03;13.70;;;1.60;99.90;;;;;;4954410;29;20558;-79
2022/12/07 07:22:09;;;;;;;21.00;12.57;;;1.60;99.90;;;;;;4956588;29;20490;-77
2022/12/07 07:24:38;;;;;;;23.23;13.33;;;1.60;99.90;;;;;;4956752;29;20510;-77
2022/12/07 07:27:04;;;;;;;20.67;13.67;;;1.60;99.90;;;;;;4957284;29;20454;-80
2022/12/07 07:29:31;;;;;;;19.43;12.67;;;1.60;99.90;;;;;;4954662;29;20454;-80
2022/12/07 07:31:58;;;;;;;21.30;11.07;;;1.50;99.90;;;;;;4954589;29;21099;-79
2022/12/07 07:34:25;;;;;;;19.63;11.80;;;1.50;99.90;;;;;;4956482;28;20462;-80
2022/12/07 07:36:52;;;;;;;24.47;14.10;;;1.50;99.90;;;;;;4958264;29;20524;-79
2022/12/07 07:39:18;;;;;;;21.20;12.20;;;1.50;99.90;;;;;;4959328;29;21083;-79
2022/12/07 07:41:47;;;;;;;21.63;12.70;;;1.50;99.90;;;;;;4959152;29;20496;-79
2022/12/07 07:44:14;;;;;;;19.80;11.97;;;1.50;99.90;;;;;;4958449;29;20462;-78
2022/12/07 07:46:41;;;;;;;19.10;11.53;;;1.50;99.90;;;;;;4958822;29;20458;-78
2022/12/07 07:49:09;;;;;;;21.90;12.00;;;1.60;99.90;;;;;;4959216;29;20484;-80
2022/12/07 07:51:36;;;;;;;21.23;12.10;;;1.90;99.90;;;;;;4959321;29;20445;-80
2022/12/07 07:54:03;;;;;;;20.60;12.10;;;2.00;99.90;;;;;;4957731;28;20474;-78
2022/12/07 07:56:30;;;;;;;16.97;10.10;;;2.00;99.90;;;;;;4959869;29;20481;-79
2022/12/07 07:58:58;;;;;;;20.43;11.57;;;2.00;99.90;;;;;;4957944;28;20450;-78
2022/12/07 08:01:27;;;;;;;25.50;13.33;;;1.70;99.90;;;;;;4960671;29;20497;-81
2022/12/07 08:03:54;;;;;;;21.33;13.67;;;1.90;99.90;;;;;;4963283;28;20484;-78
2022/12/07 08:06:21;;;;;;;18.97;10.33;;;1.80;99.90;;;;;;4963256;28;20810;-76
2022/12/07 08:08:48;;;;;;;19.23;11.10;;;2.10;99.90;;;;;;4964788;28;20492;-79
2022/12/07 08:11:16;;;;;;;25.70;12.73;;;1.90;99.90;;;;;;4960604;28;20554;-77
2022/12/07 08:13:46;;;;;;;22.90;11.57;;;1.80;99.90;;;;;;4967948;28;20506;-80
2022/12/07 08:16:15;;;;;;;22.03;12.90;;;2.00;99.90;;;;;;4967865;28;20446;-79
2022/12/07 13:00:20;;;;;;;12.47;6.70;;;4.20;99.90;;;;;;1253717;27;20530;-76
2022/12/07 13:08:48;;;;;;;10.70;6.30;;;4.00;99.90;;;;;;4934789;29;20435;-75
2022/12/07 13:11:20;;;;;;;10.23;5.67;;;4.40;99.90;;;;;;4915851;29;20855;-74
2022/12/07 13:13:47;;;;;;;9.67;6.63;;;3.90;99.90;;;;;;4920110;29;20733;-76
2022/12/07 13:16:39;;;;;;;13.93;6.80;;;3.90;99.90;;;;;;4915455;29;20465;-75
2022/12/07 13:19:39;;;;;;;9.87;5.10;;;4.30;99.90;;;;;;4913823;29;20458;-75
2022/12/07 13:22:44;;;;;;;10.80;6.43;;;5.10;99.90;;;;;;4913339;29;20833;-75
2022/12/07 13:25:18;;;;;;;12.30;7.07;;;5.10;99.90;;;;;;4910758;29;20466;-75
2022/12/07 13:27:54;;;;;;;10.90;6.63;;;6.10;99.90;;;;;;4913816;29;20535;-76
2022/12/07 13:30:23;;;;;;;8.93;6.50;;;7.10;99.90;;;;;;4913814;29;20500;-76
2022/12/07 13:32:55;;;;;;;8.47;5.70;;;7.10;99.90;;;;;;4913460;29;20536;-75
2022/12/07 13:35:33;;;;;;;10.90;6.70;;;5.70;99.90;;;;;;4914310;29;20444;-74
2022/12/07 13:38:04;;;;;;;10.20;6.20;;;4.90;99.90;;;;;;4903150;29;20549;-74
2022/12/07 13:40:31;;;;;;;12.67;7.37;;;4.20;99.90;;;;;;4902245;29;20505;-74
2022/12/07 13:42:59;;;;;;;9.93;6.40;;;4.00;99.90;;;;;;4898721;29;20529;-74
2022/12/07 13:45:57;;;;;;;12.23;5.70;;;3.90;99.90;;;;;;4904643;29;20501;-79
2022/12/07 13:56:37;;;;;;;11.93;6.83;;;3.70;99.90;;;;;;915345;26;21448;-78
2022/12/07 13:59:06;;;;;;;17.60;8.10;;;3.60;99.90;;;;;;4990846;28;20478;-75
2022/12/07 14:01:33;;;;;;;12.50;7.57;;;3.70;99.90;;;;;;4990206;28;20576;-75
2022/12/07 14:04:18;;;;;;;10.60;7.00;;;3.80;99.90;;;;;;4989121;28;20564;-75
2022/12/07 14:06:50;;;;;;;14.60;7.47;;;3.60;99.90;;;;;;4989112;28;20536;-76
2022/12/07 14:09:20;;;;;;;15.83;6.70;;;3.60;99.90;;;;;;4990311;28;20480;-75
2022/12/07 14:11:50;;;;;;;9.83;6.93;;;3.50;99.90;;;;;;4990739;28;20540;-75
2022/12/07 14:14:24;;;;;;;12.07;7.23;;;3.50;99.90;;;;;;4991107;28;20792;-75
2022/12/07 14:16:59;;;;;;;11.73;7.20;;;3.70;99.90;;;;;;4991652;28;20492;-76
2022/12/07 14:19:49;;;;;;;10.23;5.80;;;3.60;99.90;;;;;;4991451;28;20838;-76
2022/12/07 14:22:39;;;;;;;11.23;6.17;;;3.60;99.90;;;;;;4991229;28;20497;-75
2022/12/07 14:25:27;;;;;;;12.50;5.90;;;3.60;99.90;;;;;;4992845;28;20782;-75
2022/12/07 14:27:58;;;;;;;12.70;6.00;;;3.60;99.90;;;;;;4992713;28;20553;-75
2022/12/07 14:30:28;;;;;;;10.47;7.13;;;3.70;99.90;;;;;;4993590;28;20609;-76
2022/12/07 14:32:58;;;;;;;7.30;5.70;;;3.60;99.90;;;;;;4994240;28;20793;-76
2022/12/07 14:35:25;;;;;;;7.57;5.13;;;4.80;99.90;;;;;;4994265;28;20872;-77
2022/12/07 14:37:52;;;;;;;7.30;5.80;;;3.60;99.90;;;;;;4993076;28;20485;-75
2022/12/07 14:40:21;;;;;;;9.27;5.20;;;3.60;99.90;;;;;;4990615;28;20540;-75
2022/12/07 14:42:52;;;;;;;6.93;5.17;;;3.60;99.90;;;;;;4992039;28;20543;-75
2022/12/07 14:45:22;;;;;;;8.73;4.77;;;3.30;99.90;;;;;;4994044;28;20480;-75
2022/12/07 14:47:49;;;;;;;7.03;4.50;;;3.50;99.90;;;;;;5005935;28;20457;-76
2022/12/07 14:50:19;;;;;;;7.47;4.93;;;3.50;99.90;;;;;;4990707;28;20934;-78
2022/12/07 14:52:49;;;;;;;8.40;4.60;;;3.50;99.90;;;;;;4989423;28;21123;-76
2022/12/07 14:55:23;;;;;;;8.30;5.20;;;3.40;99.90;;;;;;4987321;28;20496;-76
2022/12/07 14:57:53;;;;;;;10.13;5.70;;;3.40;99.90;;;;;;4989999;28;20464;-76
2022/12/07 15:00:23;;;;;;;7.47;5.10;;;3.30;99.90;;;;;;4991641;28;20784;-73
2022/12/07 15:02:50;;;;;;;10.00;5.37;;;3.30;99.90;;;;;;4981290;28;20689;-73
2022/12/07 15:05:19;;;;;;;10.27;4.90;;;3.30;99.90;;;;;;4965535;28;20457;-73
2022/12/07 15:07:48;;;;;;;7.73;5.33;;;3.30;99.90;;;;;;4966091;28;20953;-73
2022/12/07 15:10:18;;;;;;;11.23;5.90;;;3.30;99.90;;;;;;4966018;28;20519;-73
2022/12/07 15:12:46;;;;;;;7.17;5.13;;;3.30;99.90;;;;;;4965860;28;20949;-73
2022/12/07 15:15:12;;;;;;;10.77;5.63;;;3.20;99.90;;;;;;4966256;28;20651;-73
2022/12/07 15:17:41;;;;;;;12.20;6.40;;;3.30;99.90;;;;;;4966298;28;20556;-73
2022/12/07 15:20:12;;;;;;;7.90;5.10;;;3.20;99.90;;;;;;4965061;28;20845;-74
2022/12/07 15:22:39;;;;;;;8.90;6.10;;;3.30;99.90;;;;;;4965904;28;20497;-73
2022/12/07 15:25:07;;;;;;;7.13;5.70;;;3.20;99.90;;;;;;4964681;28;20453;-73
2022/12/07 15:27:34;;;;;;;10.20;6.00;;;3.20;99.90;;;;;;4966073;28;20462;-73
2022/12/07 15:30:01;;;;;;;9.33;5.07;;;3.20;99.90;;;;;;4966070;28;20819;-73
2022/12/07 15:32:28;;;;;;;9.10;5.40;;;3.30;99.90;;;;;;4966111;28;20464;-73
2022/12/07 15:34:56;;;;;;;12.90;7.20;;;3.20;99.90;;;;;;4965519;28;20804;-73
2022/12/07 15:37:23;;;;;;;8.40;5.53;;;3.30;99.90;;;;;;4965003;28;20465;-73
2022/12/07 15:39:50;;;;;;;12.93;6.57;;;3.30;99.90;;;;;;4965843;28;20478;-73
2022/12/07 15:42:17;;;;;;;13.60;6.70;;;3.30;99.90;;;;;;4965776;28;20500;-74
2022/12/07 15:47:27;;;;;;;11.20;5.67;;;3.20;99.90;;;;;;4955328;28;20442;-74
2022/12/07 15:49:55;;;;;;;7.90;5.03;;;3.10;99.90;;;;;;4965611;28;20461;-73
2022/12/07 15:52:22;;;;;;;12.93;6.33;;;3.00;99.90;;;;;;4964685;28;20477;-73
2022/12/07 15:54:49;;;;;;;10.90;7.63;;;2.90;99.90;;;;;;4965723;28;21153;-73
2022/12/07 15:57:16;;;;;;;8.13;5.93;;;2.90;99.90;;;;;;4970109;28;20478;-73
2022/12/07 15:59:43;;;;;;;11.50;7.67;;;3.00;99.90;;;;;;4970153;28;20454;-73
2022/12/07 16:02:10;;;;;;;13.03;7.23;;;3.00;99.90;;;;;;4973798;28;20500;-73
2022/12/07 16:04:37;;;;;;;10.50;7.90;;;2.70;99.90;;;;;;4975991;28;20460;-73
2022/12/07 16:07:06;;;;;;;11.37;8.20;;;2.60;99.90;;;;;;4973236;28;20565;-74
2022/12/07 16:09:33;;;;;;;10.73;6.73;;;2.60;99.90;;;;;;4975532;28;20490;-74
2022/12/07 16:12:00;;;;;;;10.20;7.30;;;2.60;99.90;;;;;;4972860;28;20457;-74
2022/12/07 16:14:27;;;;;;;11.80;7.87;;;2.50;99.90;;;;;;4969894;28;20460;-74
2022/12/07 16:16:53;;;;;;;11.00;7.07;;;2.50;99.90;;;;;;4970019;28;20458;-73
2022/12/07 16:19:21;;;;;;;18.13;8.67;;;2.50;99.90;;;;;;4969963;28;20551;-73
2022/12/07 16:21:47;;;;;;;12.57;8.90;;;2.50;99.90;;;;;;4968683;28;20857;-73
2022/12/07 16:24:16;;;;;;;10.63;7.43;;;2.40;99.90;;;;;;4969408;28;20457;-73
2022/12/07 16:26:43;;;;;;;16.20;8.57;;;2.40;99.90;;;;;;4969372;28;20453;-75
2022/12/07 16:29:13;;;;;;;8.67;6.43;;;2.40;99.90;;;;;;4969311;28;20987;-73
2022/12/07 16:31:40;;;;;;;9.87;6.40;;;2.50;99.90;;;;;;4971163;28;21048;-74
2022/12/07 16:34:08;;;;;;;15.90;9.43;;;2.70;99.90;;;;;;4970514;28;20539;-76
2022/12/07 16:36:35;;;;;;;17.13;8.57;;;2.50;99.90;;;;;;4969728;28;20462;-75
2022/12/07 16:39:02;;;;;;;9.10;6.13;;;2.40;99.90;;;;;;4970451;28;20473;-75
2022/12/07 16:41:31;;;;;;;13.83;8.27;;;2.40;99.90;;;;;;4970534;28;20895;-75
2022/12/07 16:44:02;;;;;;;15.83;7.27;;;2.30;99.90;;;;;;4970109;28;20496;-75
2022/12/07 16:46:29;;;;;;;12.10;7.23;;;2.30;99.90;;;;;;4972117;28;20549;-75
2022/12/07 16:48:56;;;;;;;11.70;7.37;;;2.30;99.90;;;;;;4973707;28;20464;-75
2022/12/07 16:51:23;;;;;;;13.07;7.70;;;2.30;99.90;;;;;;4973234;28;20463;-76
2022/12/07 16:53:54;;;;;;;12.53;9.00;;;2.30;99.90;;;;;;4973222;28;20472;-76
2022/12/07 16:56:22;;;;;;;10.53;7.30;;;2.20;99.90;;;;;;4974524;28;20902;-77
2022/12/07 16:58:50;;;;;;;15.50;8.30;;;2.20;99.90;;;;;;4972386;28;20493;-76
2022/12/07 17:01:19;;;;;;;12.53;7.80;;;2.20;99.90;;;;;;4972855;28;20458;-75
2022/12/07 17:03:47;;;;;;;19.23;9.47;;;2.20;99.90;;;;;;4972375;28;20503;-76
2022/12/07 17:06:16;;;;;;;15.47;8.50;;;2.10;99.90;;;;;;4973624;28;21034;-76
2022/12/07 17:08:44;;;;;;;12.13;7.93;;;2.20;99.90;;;;;;4972927;28;20463;-76
2022/12/07 17:11:12;;;;;;;9.90;7.50;;;2.10;99.90;;;;;;4975372;28;20537;-76
2022/12/07 17:16:25;;;;;;;15.23;9.10;;;2.10;99.90;;;;;;4975853;28;20433;-76
2022/12/07 17:18:52;;;;;;;14.13;7.70;;;2.10;99.90;;;;;;4973573;28;20921;-76
2022/12/07 17:21:19;;;;;;;18.40;9.27;;;2.10;99.90;;;;;;4971677;28;20450;-77
2022/12/07 17:23:47;;;;;;;19.43;9.70;;;2.10;99.90;;;;;;4971107;28;20493;-76
2022/12/07 17:26:16;;;;;;;16.63;7.80;;;2.10;99.90;;;;;;4968609;28;20911;-79
2022/12/07 17:28:44;;;;;;;16.90;8.20;;;2.10;99.90;;;;;;4974786;28;20565;-75
2022/12/07 17:31:13;;;;;;;15.47;9.30;;;2.10;99.90;;;;;;4970176;28;20448;-78
2022/12/07 17:33:42;;;;;;;16.97;9.77;;;2.00;99.90;;;;;;4969651;28;20544;-78
2022/12/07 17:36:15;;;;;;;14.07;8.43;;;2.00;99.90;;;;;;4970556;28;20970;-78
2022/12/07 17:38:42;;;;;;;13.30;8.70;;;2.10;99.90;;;;;;4968006;28;20460;-78
2022/12/07 17:42:35;;;;;;;13.30;9.00;;;1.80;99.90;;;;;;4975144;28;20472;-81
2022/12/07 17:44:02;;;;;;;14.17;8.30;;;1.80;99.90;;;;;;4974122;28;21095;-72
2022/12/07 17:46:31;;;;;;;14.37;9.27;;;1.80;99.90;;;;;;4970184;28;20794;-79
2022/12/07 17:49:00;;;;;;;17.40;9.80;;;1.80;99.90;;;;;;4972034;28;20450;-78
2022/12/07 17:54:12;;;;;;;14.07;8.70;;;1.70;99.90;;;;;;4973582;28;20464;-76
2022/12/07 17:56:39;;;;;;;18.50;9.80;;;1.60;99.90;;;;;;4985081;28;20939;-78
2022/12/07 17:59:07;;;;;;;16.47;8.33;;;1.70;99.90;;;;;;4972019;28;20472;-77
2022/12/07 18:01:34;;;;;;;16.30;9.10;;;1.70;99.90;;;;;;4969777;28;20541;-79
2022/12/07 18:04:03;;;;;;;15.73;9.77;;;1.60;99.90;;;;;;4970223;28;20928;-77
2022/12/07 18:06:30;;;;;;;14.40;8.60;;;1.50;99.90;;;;;;4969720;28;20472;-78
2022/12/07 18:08:57;;;;;;;16.83;9.83;;;1.50;99.90;;;;;;4969681;28;20486;-76
2022/12/07 18:11:25;;;;;;;13.70;7.90;;;1.60;99.90;;;;;;4971039;28;20597;-77
2022/12/07 18:13:52;;;;;;;13.97;8.83;;;1.50;99.90;;;;;;4970256;28;20461;-76
2022/12/07 18:16:22;;;;;;;16.23;8.27;;;1.50;99.90;;;;;;4969587;28;20529;-76
2022/12/07 18:18:52;;;;;;;17.73;9.57;;;1.50;99.90;;;;;;4967394;28;20556;-78
2022/12/07 18:21:23;;;;;;;17.13;8.70;;;1.60;99.90;;;;;;4968459;28;20461;-78
2022/12/07 18:23:52;;;;;;;14.10;9.33;;;1.70;99.90;;;;;;4950380;29;20591;-78
2022/12/07 18:26:20;;;;;;;17.70;9.20;;;1.70;99.90;;;;;;4952622;28;20968;-79